Terminal Aerodrome Forecast
Issued by NWS

Current Version | Previous Version | Text Only | Print | Product List | Glossary On
Versions: 1 2 3 4 5 6 7 8 9 10 11 12 13
302
FTUS46 KMTR 231120
TAFSJC
TAF
KSJC 231120Z 2312/2412 30005KT P6SM SKC
     FM232030 30012KT P6SM FEW040
     FM240400 32005KT P6SM SKC
     FM240900 14005KT P6SM SKC=

USA.gov is the U.S. government's official web portal to all federal, state and local government web resources and services.